sensor_id;sensor_type;location;lat;lon;timestamp;P1;durP1;ratioP1;P2;durP2;ratioP2
16254;SDS011;8235;52.198;9.904;2023-03-11T00:01:09;18.67;;;13.10;;
16254;SDS011;8235;52.198;9.904;2023-03-11T00:03:36;18.30;;;13.10;;
16254;SDS011;8235;52.198;9.904;2023-03-11T00:06:04;16.63;;;12.23;;
16254;SDS011;8235;52.198;9.904;2023-03-11T00:08:31;16.30;;;10.93;;
16254;SDS011;8235;52.198;9.904;2023-03-11T00:10:58;16.73;;;11.77;;
16254;SDS011;8235;52.198;9.904;2023-03-11T00:13:26;15.47;;;10.87;;
16254;SDS011;8235;52.198;9.904;2023-03-11T00:15:54;14.77;;;10.10;;
16254;SDS011;8235;52.198;9.904;2023-03-11T00:18:22;13.13;;;9.63;;
16254;SDS011;8235;52.198;9.904;2023-03-11T00:20:51;11.27;;;8.47;;
16254;SDS011;8235;52.198;9.904;2023-03-11T00:23:20;11.33;;;8.53;;
16254;SDS011;8235;52.198;9.904;2023-03-11T00:25:47;12.37;;;8.70;;
16254;SDS011;8235;52.198;9.904;2023-03-11T00:28:13;11.53;;;8.23;;
16254;SDS011;8235;52.198;9.904;2023-03-11T00:30:41;10.50;;;7.80;;
16254;SDS011;8235;52.198;9.904;2023-03-11T00:33:10;10.67;;;6.93;;
16254;SDS011;8235;52.198;9.904;2023-03-11T00:35:38;8.67;;;6.63;;
16254;SDS011;8235;52.198;9.904;2023-03-11T00:38:06;9.67;;;7.57;;
16254;SDS011;8235;52.198;9.904;2023-03-11T00:40:35;9.60;;;7.27;;
16254;SDS011;8235;52.198;9.904;2023-03-11T00:43:02;11.47;;;8.03;;
16254;SDS011;8235;52.198;9.904;2023-03-11T00:45:29;10.53;;;8.20;;
16254;SDS011;8235;52.198;9.904;2023-03-11T00:47:56;11.80;;;8.43;;
16254;SDS011;8235;52.198;9.904;2023-03-11T00:50:24;10.40;;;7.57;;
16254;SDS011;8235;52.198;9.904;2023-03-11T00:52:52;8.33;;;6.50;;
16254;SDS011;8235;52.198;9.904;2023-03-11T00:55:19;11.70;;;8.20;;
16254;SDS011;8235;52.198;9.904;2023-03-11T00:57:51;8.57;;;5.47;;
16254;SDS011;8235;52.198;9.904;2023-03-11T01:00:19;7.77;;;6.37;;
16254;SDS011;8235;52.198;9.904;2023-03-11T01:02:47;9.23;;;6.63;;
16254;SDS011;8235;52.198;9.904;2023-03-11T01:05:14;8.50;;;6.20;;
16254;SDS011;8235;52.198;9.904;2023-03-11T01:07:40;9.90;;;7.20;;
16254;SDS011;8235;52.198;9.904;2023-03-11T01:10:08;9.43;;;6.47;;
16254;SDS011;8235;52.198;9.904;2023-03-11T01:12:35;11.43;;;7.27;;
16254;SDS011;8235;52.198;9.904;2023-03-11T01:15:04;11.50;;;6.77;;
16254;SDS011;8235;52.198;9.904;2023-03-11T01:17:31;10.13;;;6.57;;
16254;SDS011;8235;52.198;9.904;2023-03-11T01:19:58;6.77;;;4.60;;
16254;SDS011;8235;52.198;9.904;2023-03-11T01:22:24;7.50;;;5.10;;
16254;SDS011;8235;52.198;9.904;2023-03-11T01:24:51;5.43;;;3.70;;
16254;SDS011;8235;52.198;9.904;2023-03-11T01:27:17;5.40;;;3.80;;
16254;SDS011;8235;52.198;9.904;2023-03-11T01:29:44;3.40;;;2.97;;
16254;SDS011;8235;52.198;9.904;2023-03-11T01:32:12;3.97;;;2.90;;
16254;SDS011;8235;52.198;9.904;2023-03-11T01:34:38;3.50;;;2.90;;
16254;SDS011;8235;52.198;9.904;2023-03-11T01:37:05;3.27;;;2.90;;
16254;SDS011;8235;52.198;9.904;2023-03-11T01:39:31;3.70;;;2.63;;
16254;SDS011;8235;52.198;9.904;2023-03-11T01:41:58;4.30;;;2.97;;
16254;SDS011;8235;52.198;9.904;2023-03-11T01:44:24;6.13;;;2.97;;
16254;SDS011;8235;52.198;9.904;2023-03-11T01:49:56;5.53;;;3.10;;
16254;SDS011;8235;52.198;9.904;2023-03-11T01:52:22;5.77;;;3.20;;
16254;SDS011;8235;52.198;9.904;2023-03-11T01:54:49;5.60;;;3.27;;
16254;SDS011;8235;52.198;9.904;2023-03-11T01:57:15;5.83;;;4.17;;
16254;SDS011;8235;52.198;9.904;2023-03-11T01:59:43;5.87;;;3.87;;
16254;SDS011;8235;52.198;9.904;2023-03-11T02:02:15;3.77;;;3.30;;
16254;SDS011;8235;52.198;9.904;2023-03-11T02:04:45;4.93;;;4.07;;
16254;SDS011;8235;52.198;9.904;2023-03-11T02:07:14;5.90;;;3.97;;
16254;SDS011;8235;52.198;9.904;2023-03-11T02:09:40;6.57;;;4.13;;
16254;SDS011;8235;52.198;9.904;2023-03-11T02:12:08;5.57;;;4.20;;
16254;SDS011;8235;52.198;9.904;2023-03-11T02:14:37;5.03;;;3.30;;
16254;SDS011;8235;52.198;9.904;2023-03-11T02:17:07;6.27;;;3.70;;
16254;SDS011;8235;52.198;9.904;2023-03-11T02:19:34;4.87;;;3.80;;
16254;SDS011;8235;52.198;9.904;2023-03-11T02:22:10;5.07;;;3.47;;
16254;SDS011;8235;52.198;9.904;2023-03-11T02:24:42;4.97;;;2.83;;
16254;SDS011;8235;52.198;9.904;2023-03-11T02:27:13;7.80;;;4.00;;
16254;SDS011;8235;52.198;9.904;2023-03-11T02:29:43;4.53;;;3.00;;
16254;SDS011;8235;52.198;9.904;2023-03-11T02:32:13;6.03;;;3.53;;
16254;SDS011;8235;52.198;9.904;2023-03-11T02:34:40;6.47;;;3.40;;
16254;SDS011;8235;52.198;9.904;2023-03-11T02:37:08;5.60;;;3.67;;
16254;SDS011;8235;52.198;9.904;2023-03-11T02:39:37;6.50;;;3.97;;
16254;SDS011;8235;52.198;9.904;2023-03-11T02:42:06;6.80;;;3.87;;
16254;SDS011;8235;52.198;9.904;2023-03-11T02:44:38;6.97;;;3.60;;
16254;SDS011;8235;52.198;9.904;2023-03-11T02:47:09;7.77;;;3.77;;
16254;SDS011;8235;52.198;9.904;2023-03-11T02:49:36;7.73;;;3.63;;
16254;SDS011;8235;52.198;9.904;2023-03-11T02:52:03;5.60;;;3.23;;
16254;SDS011;8235;52.198;9.904;2023-03-11T02:54:29;4.50;;;3.43;;
16254;SDS011;8235;52.198;9.904;2023-03-11T02:56:56;4.57;;;2.83;;
16254;SDS011;8235;52.198;9.904;2023-03-11T02:59:23;4.73;;;3.57;;
16254;SDS011;8235;52.198;9.904;2023-03-11T03:01:50;4.03;;;3.17;;
16254;SDS011;8235;52.198;9.904;2023-03-11T03:04:17;4.70;;;2.90;;
16254;SDS011;8235;52.198;9.904;2023-03-11T03:06:43;4.67;;;2.90;;
16254;SDS011;8235;52.198;9.904;2023-03-11T03:09:10;5.10;;;2.93;;
16254;SDS011;8235;52.198;9.904;2023-03-11T03:11:37;4.40;;;2.93;;
16254;SDS011;8235;52.198;9.904;2023-03-11T03:14:03;3.70;;;2.80;;
16254;SDS011;8235;52.198;9.904;2023-03-11T03:16:30;7.73;;;3.43;;
16254;SDS011;8235;52.198;9.904;2023-03-11T03:18:57;4.83;;;3.53;;
16254;SDS011;8235;52.198;9.904;2023-03-11T03:21:24;3.83;;;3.20;;
16254;SDS011;8235;52.198;9.904;2023-03-11T03:23:50;4.43;;;2.87;;
16254;SDS011;8235;52.198;9.904;2023-03-11T03:26:17;5.53;;;3.40;;
16254;SDS011;8235;52.198;9.904;2023-03-11T03:28:44;4.20;;;2.80;;
16254;SDS011;8235;52.198;9.904;2023-03-11T03:31:10;5.10;;;2.97;;
16254;SDS011;8235;52.198;9.904;2023-03-11T03:33:37;7.33;;;3.53;;
16254;SDS011;8235;52.198;9.904;2023-03-11T03:36:06;3.17;;;2.60;;
16254;SDS011;8235;52.198;9.904;2023-03-11T03:38:33;2.87;;;2.57;;
16254;SDS011;8235;52.198;9.904;2023-03-11T03:40:59;5.80;;;2.80;;
16254;SDS011;8235;52.198;9.904;2023-03-11T03:43:26;3.80;;;2.97;;
16254;SDS011;8235;52.198;9.904;2023-03-11T03:45:55;6.83;;;3.40;;
16254;SDS011;8235;52.198;9.904;2023-03-11T03:48:23;5.23;;;2.83;;
16254;SDS011;8235;52.198;9.904;2023-03-11T03:50:49;4.40;;;3.17;;
16254;SDS011;8235;52.198;9.904;2023-03-11T03:53:17;7.43;;;2.50;;
16254;SDS011;8235;52.198;9.904;2023-03-11T03:55:44;6.50;;;2.57;;
16254;SDS011;8235;52.198;9.904;2023-03-11T03:58:10;4.17;;;2.60;;
16254;SDS011;8235;52.198;9.904;2023-03-11T04:00:37;5.13;;;2.90;;
16254;SDS011;8235;52.198;9.904;2023-03-11T04:03:03;5.77;;;2.97;;
16254;SDS011;8235;52.198;9.904;2023-03-11T04:05:30;3.97;;;2.43;;
16254;SDS011;8235;52.198;9.904;2023-03-11T04:07:57;7.33;;;2.10;;
16254;SDS011;8235;52.198;9.904;2023-03-11T04:10:25;3.53;;;2.20;;
16254;SDS011;8235;52.198;9.904;2023-03-11T04:12:52;5.60;;;2.70;;
16254;SDS011;8235;52.198;9.904;2023-03-11T04:15:19;5.40;;;2.70;;
16254;SDS011;8235;52.198;9.904;2023-03-11T04:17:45;4.10;;;2.50;;
16254;SDS011;8235;52.198;9.904;2023-03-11T04:20:12;6.77;;;2.70;;
16254;SDS011;8235;52.198;9.904;2023-03-11T04:22:38;5.03;;;2.53;;
16254;SDS011;8235;52.198;9.904;2023-03-11T04:25:05;3.27;;;2.00;;
16254;SDS011;8235;52.198;9.904;2023-03-11T04:27:33;4.07;;;2.47;;
16254;SDS011;8235;52.198;9.904;2023-03-11T04:30:02;7.20;;;2.37;;
16254;SDS011;8235;52.198;9.904;2023-03-11T04:32:30;4.83;;;2.07;;
16254;SDS011;8235;52.198;9.904;2023-03-11T04:34:56;5.50;;;2.60;;
16254;SDS011;8235;52.198;9.904;2023-03-11T04:37:26;4.23;;;2.30;;
16254;SDS011;8235;52.198;9.904;2023-03-11T04:39:52;3.47;;;2.30;;
16254;SDS011;8235;52.198;9.904;2023-03-11T04:42:19;5.00;;;2.07;;
16254;SDS011;8235;52.198;9.904;2023-03-11T04:44:47;8.90;;;2.20;;
16254;SDS011;8235;52.198;9.904;2023-03-11T04:47:13;6.40;;;2.20;;
16254;SDS011;8235;52.198;9.904;2023-03-11T04:49:40;3.40;;;2.17;;
16254;SDS011;8235;52.198;9.904;2023-03-11T04:52:06;5.13;;;2.33;;
16254;SDS011;8235;52.198;9.904;2023-03-11T04:54:33;5.93;;;2.37;;
16254;SDS011;8235;52.198;9.904;2023-03-11T04:56:59;3.27;;;2.03;;
16254;SDS011;8235;52.198;9.904;2023-03-11T04:59:25;3.60;;;2.10;;
16254;SDS011;8235;52.198;9.904;2023-03-11T05:01:53;5.47;;;1.87;;
16254;SDS011;8235;52.198;9.904;2023-03-11T05:04:20;4.53;;;2.30;;
16254;SDS011;8235;52.198;9.904;2023-03-11T05:06:46;8.03;;;2.10;;
16254;SDS011;8235;52.198;9.904;2023-03-11T05:09:15;5.87;;;2.23;;
16254;SDS011;8235;52.198;9.904;2023-03-11T05:11:41;4.60;;;1.50;;
16254;SDS011;8235;52.198;9.904;2023-03-11T05:14:08;4.93;;;1.67;;
16254;SDS011;8235;52.198;9.904;2023-03-11T05:16:34;7.40;;;1.67;;
16254;SDS011;8235;52.198;9.904;2023-03-11T05:19:02;3.07;;;1.70;;
16254;SDS011;8235;52.198;9.904;2023-03-11T05:21:49;4.77;;;1.40;;
16254;SDS011;8235;52.198;9.904;2023-03-11T05:24:16;3.23;;;1.70;;
16254;SDS011;8235;52.198;9.904;2023-03-11T05:26:42;3.27;;;1.53;;
16254;SDS011;8235;52.198;9.904;2023-03-11T05:29:09;4.50;;;1.73;;
16254;SDS011;8235;52.198;9.904;2023-03-11T05:31:35;4.37;;;1.90;;
16254;SDS011;8235;52.198;9.904;2023-03-11T05:34:03;3.53;;;1.50;;
16254;SDS011;8235;52.198;9.904;2023-03-11T05:36:30;4.80;;;1.70;;
16254;SDS011;8235;52.198;9.904;2023-03-11T05:38:57;6.47;;;2.53;;
16254;SDS011;8235;52.198;9.904;2023-03-11T05:41:23;2.80;;;1.60;;
16254;SDS011;8235;52.198;9.904;2023-03-11T05:43:50;4.80;;;2.10;;
16254;SDS011;8235;52.198;9.904;2023-03-11T05:46:16;5.13;;;1.70;;
16254;SDS011;8235;52.198;9.904;2023-03-11T05:48:43;5.13;;;1.63;;
16254;SDS011;8235;52.198;9.904;2023-03-11T05:51:11;5.50;;;1.70;;
16254;SDS011;8235;52.198;9.904;2023-03-11T05:53:40;3.73;;;1.67;;
16254;SDS011;8235;52.198;9.904;2023-03-11T05:56:12;3.97;;;1.57;;
16254;SDS011;8235;52.198;9.904;2023-03-11T05:58:39;4.90;;;1.53;;
16254;SDS011;8235;52.198;9.904;2023-03-11T06:01:06;5.00;;;1.73;;
16254;SDS011;8235;52.198;9.904;2023-03-11T06:03:34;4.07;;;1.67;;
16254;SDS011;8235;52.198;9.904;2023-03-11T06:06:06;3.13;;;1.50;;
16254;SDS011;8235;52.198;9.904;2023-03-11T06:08:36;3.07;;;1.20;;
16254;SDS011;8235;52.198;9.904;2023-03-11T06:11:03;5.43;;;1.80;;
16254;SDS011;8235;52.198;9.904;2023-03-11T06:13:31;4.37;;;1.60;;
16254;SDS011;8235;52.198;9.904;2023-03-11T06:15:58;5.73;;;1.50;;
16254;SDS011;8235;52.198;9.904;2023-03-11T06:18:24;4.17;;;1.30;;
16254;SDS011;8235;52.198;9.904;2023-03-11T06:20:51;8.50;;;1.77;;
16254;SDS011;8235;52.198;9.904;2023-03-11T06:23:18;4.30;;;1.23;;
16254;SDS011;8235;52.198;9.904;2023-03-11T06:25:54;6.10;;;1.07;;
16254;SDS011;8235;52.198;9.904;2023-03-11T06:28:21;4.03;;;1.10;;
16254;SDS011;8235;52.198;9.904;2023-03-11T06:30:48;4.53;;;1.40;;
16254;SDS011;8235;52.198;9.904;2023-03-11T06:33:14;4.20;;;1.00;;
16254;SDS011;8235;52.198;9.904;2023-03-11T06:35:41;3.63;;;1.27;;
16254;SDS011;8235;52.198;9.904;2023-03-11T06:38:07;3.40;;;1.20;;
16254;SDS011;8235;52.198;9.904;2023-03-11T06:40:35;2.13;;;1.00;;
16254;SDS011;8235;52.198;9.904;2023-03-11T06:43:03;2.97;;;1.23;;
16254;SDS011;8235;52.198;9.904;2023-03-11T06:45:29;2.50;;;1.10;;
16254;SDS011;8235;52.198;9.904;2023-03-11T06:47:56;4.97;;;1.00;;
16254;SDS011;8235;52.198;9.904;2023-03-11T06:50:22;2.70;;;1.10;;
16254;SDS011;8235;52.198;9.904;2023-03-11T06:52:50;3.97;;;1.20;;
16254;SDS011;8235;52.198;9.904;2023-03-11T06:55:16;4.00;;;1.03;;
16254;SDS011;8235;52.198;9.904;2023-03-11T06:57:43;1.87;;;1.03;;
16254;SDS011;8235;52.198;9.904;2023-03-11T07:00:11;3.63;;;1.03;;
16254;SDS011;8235;52.198;9.904;2023-03-11T07:02:39;3.90;;;1.10;;
16254;SDS011;8235;52.198;9.904;2023-03-11T07:05:05;4.27;;;1.27;;
16254;SDS011;8235;52.198;9.904;2023-03-11T07:07:32;5.27;;;1.30;;
16254;SDS011;8235;52.198;9.904;2023-03-11T07:09:59;4.27;;;1.03;;
16254;SDS011;8235;52.198;9.904;2023-03-11T07:12:25;3.97;;;1.20;;
16254;SDS011;8235;52.198;9.904;2023-03-11T07:14:53;4.47;;;1.73;;
16254;SDS011;8235;52.198;9.904;2023-03-11T07:17:22;3.07;;;0.97;;
16254;SDS011;8235;52.198;9.904;2023-03-11T07:19:49;7.33;;;1.67;;
16254;SDS011;8235;52.198;9.904;2023-03-11T07:22:16;3.67;;;1.10;;
16254;SDS011;8235;52.198;9.904;2023-03-11T07:24:44;3.87;;;1.30;;
16254;SDS011;8235;52.198;9.904;2023-03-11T07:27:11;2.67;;;1.17;;
16254;SDS011;8235;52.198;9.904;2023-03-11T07:29:38;4.97;;;1.30;;
16254;SDS011;8235;52.198;9.904;2023-03-11T07:32:05;1.93;;;1.27;;
16254;SDS011;8235;52.198;9.904;2023-03-11T07:34:33;1.80;;;0.90;;
16254;SDS011;8235;52.198;9.904;2023-03-11T07:37:00;2.93;;;0.90;;
16254;SDS011;8235;52.198;9.904;2023-03-11T07:39:27;4.67;;;1.20;;
16254;SDS011;8235;52.198;9.904;2023-03-11T07:41:53;5.03;;;1.37;;
16254;SDS011;8235;52.198;9.904;2023-03-11T07:44:20;2.30;;;1.17;;
16254;SDS011;8235;52.198;9.904;2023-03-11T07:46:46;6.37;;;1.40;;
16254;SDS011;8235;52.198;9.904;2023-03-11T07:49:13;3.30;;;1.50;;
16254;SDS011;8235;52.198;9.904;2023-03-11T07:51:40;2.60;;;1.30;;
16254;SDS011;8235;52.198;9.904;2023-03-11T07:54:08;7.17;;;2.07;;
16254;SDS011;8235;52.198;9.904;2023-03-11T07:56:36;3.23;;;1.20;;
16254;SDS011;8235;52.198;9.904;2023-03-11T07:59:03;5.77;;;1.17;;
16254;SDS011;8235;52.198;9.904;2023-03-11T08:01:31;2.73;;;1.43;;
16254;SDS011;8235;52.198;9.904;2023-03-11T08:04:00;5.43;;;1.43;;
16254;SDS011;8235;52.198;9.904;2023-03-11T08:06:29;4.53;;;1.20;;
16254;SDS011;8235;52.198;9.904;2023-03-11T08:09:07;5.23;;;1.33;;
16254;SDS011;8235;52.198;9.904;2023-03-11T08:11:34;2.33;;;1.00;;
16254;SDS011;8235;52.198;9.904;2023-03-11T08:14:01;3.60;;;1.10;;
16254;SDS011;8235;52.198;9.904;2023-03-11T08:16:28;4.37;;;1.43;;
16254;SDS011;8235;52.198;9.904;2023-03-11T08:18:55;6.00;;;1.40;;
16254;SDS011;8235;52.198;9.904;2023-03-11T08:21:22;2.43;;;1.23;;
16254;SDS011;8235;52.198;9.904;2023-03-11T08:23:50;5.43;;;1.50;;
16254;SDS011;8235;52.198;9.904;2023-03-11T08:26:19;2.57;;;1.13;;
16254;SDS011;8235;52.198;9.904;2023-03-11T08:28:47;5.63;;;1.50;;
16254;SDS011;8235;52.198;9.904;2023-03-11T08:31:14;4.90;;;1.40;;
16254;SDS011;8235;52.198;9.904;2023-03-11T08:33:42;6.13;;;1.07;;
16254;SDS011;8235;52.198;9.904;2023-03-11T08:36:10;5.50;;;1.60;;
16254;SDS011;8235;52.198;9.904;2023-03-11T08:38:36;4.87;;;1.47;;
16254;SDS011;8235;52.198;9.904;2023-03-11T08:41:03;3.13;;;1.40;;
16254;SDS011;8235;52.198;9.904;2023-03-11T08:43:31;1.40;;;0.90;;
16254;SDS011;8235;52.198;9.904;2023-03-11T08:45:58;3.63;;;1.60;;
16254;SDS011;8235;52.198;9.904;2023-03-11T08:48:25;3.83;;;1.33;;
16254;SDS011;8235;52.198;9.904;2023-03-11T08:50:52;3.80;;;1.33;;
16254;SDS011;8235;52.198;9.904;2023-03-11T08:53:19;4.40;;;1.30;;
16254;SDS011;8235;52.198;9.904;2023-03-11T08:55:46;4.03;;;1.70;;
16254;SDS011;8235;52.198;9.904;2023-03-11T08:58:12;3.37;;;1.30;;
16254;SDS011;8235;52.198;9.904;2023-03-11T09:00:40;5.57;;;1.30;;
16254;SDS011;8235;52.198;9.904;2023-03-11T09:03:06;2.70;;;1.40;;
16254;SDS011;8235;52.198;9.904;2023-03-11T09:05:34;3.97;;;1.43;;
16254;SDS011;8235;52.198;9.904;2023-03-11T09:08:01;2.83;;;1.23;;
16254;SDS011;8235;52.198;9.904;2023-03-11T09:10:28;5.50;;;1.67;;
16254;SDS011;8235;52.198;9.904;2023-03-11T09:12:54;3.80;;;1.40;;
16254;SDS011;8235;52.198;9.904;2023-03-11T09:15:21;3.53;;;1.60;;
16254;SDS011;8235;52.198;9.904;2023-03-11T09:17:49;5.10;;;2.03;;
16254;SDS011;8235;52.198;9.904;2023-03-11T09:20:15;2.03;;;1.40;;
16254;SDS011;8235;52.198;9.904;2023-03-11T09:22:42;5.20;;;1.47;;
16254;SDS011;8235;52.198;9.904;2023-03-11T09:25:09;3.60;;;1.30;;
16254;SDS011;8235;52.198;9.904;2023-03-11T09:27:37;2.87;;;1.20;;
16254;SDS011;8235;52.198;9.904;2023-03-11T09:30:05;3.37;;;1.30;;
16254;SDS011;8235;52.198;9.904;2023-03-11T09:32:33;3.10;;;1.50;;
16254;SDS011;8235;52.198;9.904;2023-03-11T09:35:01;4.83;;;1.40;;
16254;SDS011;8235;52.198;9.904;2023-03-11T09:37:27;4.20;;;1.60;;
16254;SDS011;8235;52.198;9.904;2023-03-11T09:39:54;2.20;;;1.10;;
16254;SDS011;8235;52.198;9.904;2023-03-11T09:42:23;2.10;;;1.00;;
16254;SDS011;8235;52.198;9.904;2023-03-11T09:44:57;2.83;;;1.40;;
16254;SDS011;8235;52.198;9.904;2023-03-11T09:47:33;2.97;;;1.30;;
16254;SDS011;8235;52.198;9.904;2023-03-11T09:50:13;1.77;;;1.23;;
16254;SDS011;8235;52.198;9.904;2023-03-11T09:52:46;3.37;;;1.60;;
16254;SDS011;8235;52.198;9.904;2023-03-11T09:55:31;5.70;;;1.40;;
16254;SDS011;8235;52.198;9.904;2023-03-11T09:58:03;4.37;;;1.47;;
16254;SDS011;8235;52.198;9.904;2023-03-11T10:00:36;2.60;;;1.40;;
16254;SDS011;8235;52.198;9.904;2023-03-11T10:03:02;3.53;;;1.40;;
16254;SDS011;8235;52.198;9.904;2023-03-11T10:05:37;3.00;;;1.30;;
16254;SDS011;8235;52.198;9.904;2023-03-11T10:08:09;4.83;;;1.70;;
16254;SDS011;8235;52.198;9.904;2023-03-11T10:10:42;4.30;;;2.70;;
16254;SDS011;8235;52.198;9.904;2023-03-11T10:13:16;3.23;;;2.00;;
16254;SDS011;8235;52.198;9.904;2023-03-11T10:15:49;3.70;;;1.83;;
16254;SDS011;8235;52.198;9.904;2023-03-11T10:18:28;4.13;;;1.63;;
16254;SDS011;8235;52.198;9.904;2023-03-11T10:21:06;2.93;;;1.40;;
16254;SDS011;8235;52.198;9.904;2023-03-11T10:23:45;3.57;;;1.40;;
16254;SDS011;8235;52.198;9.904;2023-03-11T10:26:24;11.87;;;5.87;;
16254;SDS011;8235;52.198;9.904;2023-03-11T10:28:57;4.00;;;3.53;;
16254;SDS011;8235;52.198;9.904;2023-03-11T10:31:34;5.57;;;2.30;;
16254;SDS011;8235;52.198;9.904;2023-03-11T10:34:05;5.10;;;2.70;;
16254;SDS011;8235;52.198;9.904;2023-03-11T10:36:41;2.63;;;1.53;;
16254;SDS011;8235;52.198;9.904;2023-03-11T10:39:15;4.93;;;1.80;;
16254;SDS011;8235;52.198;9.904;2023-03-11T10:41:43;4.97;;;1.60;;
16254;SDS011;8235;52.198;9.904;2023-03-11T10:44:15;4.07;;;1.57;;
16254;SDS011;8235;52.198;9.904;2023-03-11T10:46:45;2.47;;;1.37;;
16254;SDS011;8235;52.198;9.904;2023-03-11T10:49:12;4.43;;;1.30;;
16254;SDS011;8235;52.198;9.904;2023-03-11T10:51:42;2.80;;;1.30;;
16254;SDS011;8235;52.198;9.904;2023-03-11T10:54:19;5.13;;;1.40;;
16254;SDS011;8235;52.198;9.904;2023-03-11T10:56:53;5.07;;;1.20;;
16254;SDS011;8235;52.198;9.904;2023-03-11T10:59:27;4.37;;;1.37;;
16254;SDS011;8235;52.198;9.904;2023-03-11T11:01:58;7.00;;;1.70;;
16254;SDS011;8235;52.198;9.904;2023-03-11T11:04:30;2.60;;;1.90;;
16254;SDS011;8235;52.198;9.904;2023-03-11T11:10:11;4.03;;;1.47;;
16254;SDS011;8235;52.198;9.904;2023-03-11T11:12:50;2.60;;;1.57;;
16254;SDS011;8235;52.198;9.904;2023-03-11T11:15:26;2.13;;;1.57;;
16254;SDS011;8235;52.198;9.904;2023-03-11T11:17:55;3.60;;;1.53;;
16254;SDS011;8235;52.198;9.904;2023-03-11T11:20:24;3.30;;;1.43;;
16254;SDS011;8235;52.198;9.904;2023-03-11T11:22:55;2.90;;;1.33;;
16254;SDS011;8235;52.198;9.904;2023-03-11T11:25:23;4.30;;;1.27;;
16254;SDS011;8235;52.198;9.904;2023-03-11T11:27:52;4.20;;;1.70;;
16254;SDS011;8235;52.198;9.904;2023-03-11T11:30:20;3.40;;;1.20;;
16254;SDS011;8235;52.198;9.904;2023-03-11T11:32:50;2.77;;;1.70;;
16254;SDS011;8235;52.198;9.904;2023-03-11T11:35:18;3.63;;;1.33;;
16254;SDS011;8235;52.198;9.904;2023-03-11T11:37:46;2.73;;;1.27;;
16254;SDS011;8235;52.198;9.904;2023-03-11T11:40:23;3.00;;;1.43;;
16254;SDS011;8235;52.198;9.904;2023-03-11T11:42:53;3.93;;;1.77;;
16254;SDS011;8235;52.198;9.904;2023-03-11T11:45:27;2.83;;;1.53;;
16254;SDS011;8235;52.198;9.904;2023-03-11T11:48:00;5.80;;;1.53;;
16254;SDS011;8235;52.198;9.904;2023-03-11T11:50:31;3.13;;;1.20;;
16254;SDS011;8235;52.198;9.904;2023-03-11T11:53:02;2.07;;;1.20;;
16254;SDS011;8235;52.198;9.904;2023-03-11T11:55:42;1.97;;;1.20;;
16254;SDS011;8235;52.198;9.904;2023-03-11T11:58:16;2.07;;;0.97;;
16254;SDS011;8235;52.198;9.904;2023-03-11T12:00:49;3.00;;;1.40;;
16254;SDS011;8235;52.198;9.904;2023-03-11T12:03:29;4.13;;;1.20;;
16254;SDS011;8235;52.198;9.904;2023-03-11T12:06:11;3.53;;;1.47;;
16254;SDS011;8235;52.198;9.904;2023-03-11T12:08:46;3.60;;;1.00;;
16254;SDS011;8235;52.198;9.904;2023-03-11T12:11:27;5.47;;;1.27;;
16254;SDS011;8235;52.198;9.904;2023-03-11T12:14:02;2.50;;;1.10;;
16254;SDS011;8235;52.198;9.904;2023-03-11T12:16:39;2.73;;;0.90;;
16254;SDS011;8235;52.198;9.904;2023-03-11T12:19:12;2.13;;;1.13;;
16254;SDS011;8235;52.198;9.904;2023-03-11T12:22:02;4.43;;;1.10;;
16254;SDS011;8235;52.198;9.904;2023-03-11T12:25:00;3.90;;;1.20;;
16254;SDS011;8235;52.198;9.904;2023-03-11T12:27:43;6.07;;;0.90;;
16254;SDS011;8235;52.198;9.904;2023-03-11T12:30:15;2.23;;;0.90;;
16254;SDS011;8235;52.198;9.904;2023-03-11T12:32:49;3.73;;;1.00;;
16254;SDS011;8235;52.198;9.904;2023-03-11T12:35:20;1.30;;;0.90;;
16254;SDS011;8235;52.198;9.904;2023-03-11T12:37:58;2.40;;;0.70;;
16254;SDS011;8235;52.198;9.904;2023-03-11T12:40:48;2.63;;;0.83;;
16254;SDS011;8235;52.198;9.904;2023-03-11T12:43:25;2.90;;;0.83;;
16254;SDS011;8235;52.198;9.904;2023-03-11T12:45:54;3.53;;;1.03;;
16254;SDS011;8235;52.198;9.904;2023-03-11T12:48:33;2.10;;;0.63;;
16254;SDS011;8235;52.198;9.904;2023-03-11T12:51:00;2.47;;;0.83;;
16254;SDS011;8235;52.198;9.904;2023-03-11T12:53:43;3.90;;;1.20;;
16254;SDS011;8235;52.198;9.904;2023-03-11T12:56:18;2.77;;;0.73;;
16254;SDS011;8235;52.198;9.904;2023-03-11T12:59:11;2.60;;;0.80;;
16254;SDS011;8235;52.198;9.904;2023-03-11T13:02:04;2.50;;;0.90;;
16254;SDS011;8235;52.198;9.904;2023-03-11T13:04:50;2.23;;;0.70;;
16254;SDS011;8235;52.198;9.904;2023-03-11T13:07:28;4.03;;;1.03;;
16254;SDS011;8235;52.198;9.904;2023-03-11T13:10:04;1.97;;;0.70;;
16254;SDS011;8235;52.198;9.904;2023-03-11T13:12:38;8.67;;;1.00;;
16254;SDS011;8235;52.198;9.904;2023-03-11T13:15:19;1.70;;;0.70;;
16254;SDS011;8235;52.198;9.904;2023-03-11T13:18:00;1.83;;;0.70;;
16254;SDS011;8235;52.198;9.904;2023-03-11T13:20:40;1.90;;;0.70;;
16254;SDS011;8235;52.198;9.904;2023-03-11T13:23:25;4.57;;;1.17;;
16254;SDS011;8235;52.198;9.904;2023-03-11T13:32:05;2.80;;;1.20;;
16254;SDS011;8235;52.198;9.904;2023-03-11T13:34:43;5.30;;;0.93;;
16254;SDS011;8235;52.198;9.904;2023-03-11T13:37:18;1.77;;;0.70;;
16254;SDS011;8235;52.198;9.904;2023-03-11T13:39:52;2.53;;;0.70;;
16254;SDS011;8235;52.198;9.904;2023-03-11T13:42:26;6.50;;;0.90;;
16254;SDS011;8235;52.198;9.904;2023-03-11T13:44:56;2.83;;;0.60;;
16254;SDS011;8235;52.198;9.904;2023-03-11T13:47:25;1.67;;;0.80;;
16254;SDS011;8235;52.198;9.904;2023-03-11T13:49:54;4.53;;;0.80;;
16254;SDS011;8235;52.198;9.904;2023-03-11T13:52:27;4.43;;;0.97;;
16254;SDS011;8235;52.198;9.904;2023-03-11T13:54:59;3.20;;;0.70;;
16254;SDS011;8235;52.198;9.904;2023-03-11T13:57:28;2.10;;;0.57;;
16254;SDS011;8235;52.198;9.904;2023-03-11T13:59:57;3.80;;;0.93;;
16254;SDS011;8235;52.198;9.904;2023-03-11T14:02:31;2.57;;;0.80;;
16254;SDS011;8235;52.198;9.904;2023-03-11T14:05:02;2.00;;;0.53;;
16254;SDS011;8235;52.198;9.904;2023-03-11T14:07:32;2.80;;;1.57;;
16254;SDS011;8235;52.198;9.904;2023-03-11T14:12:51;1.70;;;0.90;;
16254;SDS011;8235;52.198;9.904;2023-03-11T14:15:30;1.33;;;0.50;;
16254;SDS011;8235;52.198;9.904;2023-03-11T14:21:04;3.53;;;0.70;;
16254;SDS011;8235;52.198;9.904;2023-03-11T14:23:38;2.70;;;0.60;;
16254;SDS011;8235;52.198;9.904;2023-03-11T14:26:07;2.77;;;0.87;;
16254;SDS011;8235;52.198;9.904;2023-03-11T14:28:38;3.57;;;0.70;;
16254;SDS011;8235;52.198;9.904;2023-03-11T14:31:06;3.27;;;0.70;;
16254;SDS011;8235;52.198;9.904;2023-03-11T14:33:33;3.53;;;0.60;;
16254;SDS011;8235;52.198;9.904;2023-03-11T14:36:02;3.73;;;0.80;;
16254;SDS011;8235;52.198;9.904;2023-03-11T14:38:32;5.37;;;1.00;;
16254;SDS011;8235;52.198;9.904;2023-03-11T14:40:59;4.23;;;0.63;;
16254;SDS011;8235;52.198;9.904;2023-03-11T14:43:27;2.27;;;0.87;;
16254;SDS011;8235;52.198;9.904;2023-03-11T14:45:57;2.93;;;1.03;;
16254;SDS011;8235;52.198;9.904;2023-03-11T14:48:25;6.07;;;1.13;;
16254;SDS011;8235;52.198;9.904;2023-03-11T14:50:54;4.90;;;1.10;;
16254;SDS011;8235;52.198;9.904;2023-03-11T14:53:25;2.53;;;0.80;;
16254;SDS011;8235;52.198;9.904;2023-03-11T14:55:54;4.33;;;0.70;;
16254;SDS011;8235;52.198;9.904;2023-03-11T14:58:25;7.57;;;1.43;;
16254;SDS011;8235;52.198;9.904;2023-03-11T15:00:57;2.60;;;1.00;;
16254;SDS011;8235;52.198;9.904;2023-03-11T15:03:27;3.43;;;0.93;;
16254;SDS011;8235;52.198;9.904;2023-03-11T15:05:56;2.53;;;1.17;;
16254;SDS011;8235;52.198;9.904;2023-03-11T15:08:29;4.40;;;0.93;;
16254;SDS011;8235;52.198;9.904;2023-03-11T15:11:00;3.97;;;1.13;;
16254;SDS011;8235;52.198;9.904;2023-03-11T15:13:32;2.80;;;0.90;;
16254;SDS011;8235;52.198;9.904;2023-03-11T15:16:00;1.37;;;0.80;;
16254;SDS011;8235;52.198;9.904;2023-03-11T15:18:28;2.53;;;1.80;;
16254;SDS011;8235;52.198;9.904;2023-03-11T15:21:04;3.77;;;1.30;;
16254;SDS011;8235;52.198;9.904;2023-03-11T15:23:34;3.40;;;0.87;;
16254;SDS011;8235;52.198;9.904;2023-03-11T15:26:01;7.37;;;2.30;;
16254;SDS011;8235;52.198;9.904;2023-03-11T15:28:31;3.83;;;2.10;;
16254;SDS011;8235;52.198;9.904;2023-03-11T15:31:15;4.07;;;0.90;;
16254;SDS011;8235;52.198;9.904;2023-03-11T15:33:51;1.40;;;0.40;;